Nearby METAR Reports

 

TNCA - Queen Beatrix, Lesser Antilles
Distance from station: 0 0km
Updated: 29/05/2017 12:00
Mostly Cloudy
Mostly Cloudy
 Wind from E
Wind: E 31 km/h
Temperature: 32°C
Heat Index: 42°C
Dew Point: 26°C
Humidity: 71%
Barometer: 1014 hPa
Clouds: Mostly Cloudy
Visibility: 10 km
Cloud details: Mostly Cloudy 610 m
2017/05/29 16:00 TNCA 291600Z 09017KT 060V120 9999 BKN020 32/26 Q1014 A2995 NOSIG
SVJC - Paraguana/Josefa, Venezuela
Distance from station: S 83km
Updated: 17/10/2016 15:00
NOT Current
Partly Cloudy
Partly Cloudy
 Wind from E
Wind: E 19 km/h
Temperature: 30°C
Heat Index: 33°C
Dew Point: 22°C
Humidity: 62%
Barometer: 1006 hPa
Clouds: Partly Cloudy
Visibility: 7 km
Cloud details: Partly Cloudy 1219 m
2016/10/17 19:00 SVJC 171900Z 09010KT 7000 SCT040 30/22 Q1006
 
TNCC - Hato Air Curacao, Lesser Antilles
Distance from station: ESE 117km
Updated: 29/05/2017 12:00
Partly Cloudy
Partly Cloudy
 Wind from E
Wind: E 24 km/h
Temperature: 33°C
Heat Index: 39°C
Dew Point: 24°C
Humidity: 59%
Barometer: 1015 hPa
Clouds: Partly Cloudy
Visibility: 10 km
Cloud details: Partly Cloudy 610 m
2017/05/29 16:00 TNCC 291600Z 10013KT 070V140 9999 SCT020 33/24 Q1015 NOSIG
SVCR - Coro/Jose Leonar, Venezuela
Distance from station: SSE 126km
Updated: 31/12/2016 11:00
NOT Current
Few Clouds
Few Clouds
 Wind from ESE
Wind: ESE 28 km/h
Clouds: Few Clouds
Visibility: 10 km
Cloud details: Few Clouds 488 m
2016/12/31 15:00 SVCR 311500Z 12015KT 9999 FEW016 XX/XX Q1015
 
TNCB - Bonaire/Flamingo, Lesser Antilles
Distance from station: ESE 191km
Updated: 29/05/2017 11:55
Partly Cloudy
Partly Cloudy
 Wind from E
Wind: E 31 km/h
Temperature: 32°C
Heat Index: 40°C
Dew Point: 25°C
Humidity: 67%
Barometer: 1015 hPa
Clouds: Partly Cloudy
Visibility: 10 km
Cloud details: Partly Cloudy 579 m
2017/05/29 15:55 TNCB 291555Z 10017KT 070V150 9999 SCT019 32/25 Q1015
SVMC - Maracaibo/La Chi, Venezuela
Distance from station: SW 285km
Updated: 08/05/2017 11:00
NOT Current
Light drizzle, Thunderstorm
Light drizzle, Thunderstorm
 Wind from NNE
Wind: NNE 4 km/h
Summary: Light Drizzle
Clouds: Thunderstorm
Visibility: 10 km
Cloud details: Few Clouds 305 m
2017/05/08 15:00 SVMC 081500Z 02002KT 9999 -DZ FEW010 CB BKN013 27/26 Q1012